OCN74 EDDF-CYHZ
Flight info
| Callsign | OCN74 |
|---|---|
| Flight time | 6h 42m |
| Altitude | 39000 |
| Route | SOBRA2L/18 SOBRA Y180 DIK UN857 TOLVU DCT RAPOR DCT GIMER/N0462F350 DCT ESTOC UT300 PON/N0470F390 UT300 ELCOB/N0470F400 UT300 SENLO UN502 JSY DCT LIZAD DCT LULOX/M081F400 DCT DINIM/M081F390 NATF ALLRY/N0478F400 DCT CAYLY CABOT5 |
| Aircraft | A332/H-SDE2E3FGHIJ3J4J5LM1OP2RWXYZ/LB1D1 |
Departure
| Time | 2026-05-04 11:55 |
|---|---|
| Airport | Frankfurt Main Airport (EDDF) |
Arrival
| Time | 2026-05-04 18:38 |
|---|---|
| Airport | Halifax / Stanfield International Airport (CYHZ) |
| Time | Latitude | Longitude | Altitude | Speed | Heading |
|---|---|---|---|---|---|
| 2026-05-04 11:12 | 50.04887 | 8.57974 | 363 ft | 0 kts | 12° |
| 2026-05-04 11:44 | 50.04879 | 8.57971 | 363 ft | 4 kts | 13° |
| 2026-05-04 11:44 | 50.04856 | 8.57963 | 365 ft | 4 kts | 16° |
| 2026-05-04 11:44 | 50.04836 | 8.57943 | 370 ft | 4 kts | 68° |
| 2026-05-04 11:45 | 50.04833 | 8.57904 | 369 ft | 4 kts | 100° |
| 2026-05-04 11:45 | 50.04840 | 8.57864 | 365 ft | 4 kts | 111° |
| 2026-05-04 11:45 | 50.04850 | 8.57826 | 363 ft | 3 kts | 114° |
| 2026-05-04 11:45 | 50.04852 | 8.57820 | 365 ft | 0 kts | 113° |
| 2026-05-04 11:49 | 50.04849 | 8.57829 | 364 ft | 2 kts | 113° |
| 2026-05-04 11:49 | 50.04840 | 8.57861 | 365 ft | 5 kts | 117° |
| 2026-05-04 11:49 | 50.04809 | 8.57900 | 368 ft | 7 kts | 153° |
| 2026-05-04 11:49 | 50.04755 | 8.57930 | 364 ft | 9 kts | 160° |
| 2026-05-04 11:50 | 50.04688 | 8.57970 | 368 ft | 11 kts | 156° |
| 2026-05-04 11:50 | 50.04622 | 8.58009 | 365 ft | 9 kts | 159° |
| 2026-05-04 11:50 | 50.04575 | 8.58044 | 370 ft | 6 kts | 141° |
| 2026-05-04 11:50 | 50.04563 | 8.58095 | 370 ft | 5 kts | 88° |
| 2026-05-04 11:51 | 50.04579 | 8.58171 | 370 ft | 9 kts | 70° |
| 2026-05-04 11:51 | 50.04603 | 8.58271 | 377 ft | 11 kts | 70° |
| 2026-05-04 11:51 | 50.04630 | 8.58391 | 375 ft | 9 kts | 70° |
| 2026-05-04 11:51 | 50.04653 | 8.58486 | 376 ft | 8 kts | 70° |
| 2026-05-04 11:52 | 50.04645 | 8.58564 | 373 ft | 8 kts | 135° |
| 2026-05-04 11:52 | 50.04605 | 8.58588 | 377 ft | 3 kts | 166° |
| 2026-05-04 11:52 | 50.04566 | 8.58603 | 378 ft | 8 kts | 166° |
| 2026-05-04 11:52 | 50.04513 | 8.58623 | 375 ft | 6 kts | 173° |
| 2026-05-04 11:53 | 50.04484 | 8.58585 | 379 ft | 5 kts | 250° |
| 2026-05-04 11:53 | 50.04480 | 8.58568 | 374 ft | 1 kts | 250° |
| 2026-05-04 11:53 | 50.04476 | 8.58551 | 377 ft | 0 kts | 250° |
| 2026-05-04 11:55 | 50.03638 | 8.55061 | 491 ft | 165 kts | 250° |
| 2026-05-04 11:55 | 50.03218 | 8.53391 | 1030 ft | 166 kts | 248° |
| 2026-05-04 11:56 | 50.02797 | 8.51715 | 1764 ft | 163 kts | 247° |
| 2026-05-04 11:56 | 50.02155 | 8.50220 | 2156 ft | 175 kts | 219° |
| 2026-05-04 11:56 | 50.01016 | 8.49405 | 2630 ft | 188 kts | 198° |
| 2026-05-04 11:56 | 49.99712 | 8.48811 | 3040 ft | 202 kts | 198° |
| 2026-05-04 11:57 | 49.98335 | 8.48201 | 3449 ft | 215 kts | 196° |
| 2026-05-04 11:57 | 49.96853 | 8.47567 | 3882 ft | 225 kts | 198° |
| 2026-05-04 11:57 | 49.95356 | 8.46809 | 4388 ft | 228 kts | 201° |
| 2026-05-04 11:57 | 49.93866 | 8.45984 | 4952 ft | 226 kts | 204° |
| 2026-05-04 11:58 | 49.92516 | 8.44766 | 5490 ft | 224 kts | 221° |
| 2026-05-04 11:58 | 49.91356 | 8.43081 | 5817 ft | 235 kts | 226° |
| 2026-05-04 11:58 | 49.90180 | 8.41211 | 6051 ft | 251 kts | 227° |
| 2026-05-04 11:58 | 49.88938 | 8.39202 | 6473 ft | 262 kts | 227° |
| 2026-05-04 11:59 | 49.87639 | 8.37202 | 7124 ft | 264 kts | 225° |
| 2026-05-04 11:59 | 49.86320 | 8.35216 | 7786 ft | 265 kts | 224° |
| 2026-05-04 11:59 | 49.84989 | 8.33227 | 8468 ft | 267 kts | 224° |
| 2026-05-04 11:59 | 49.83644 | 8.31221 | 9168 ft | 269 kts | 223° |
| 2026-05-04 12:00 | 49.82290 | 8.29207 | 9849 ft | 271 kts | 221° |
| 2026-05-04 12:00 | 49.80921 | 8.27158 | 10320 ft | 280 kts | 224° |
| 2026-05-04 12:00 | 49.79725 | 8.24652 | 10591 ft | 300 kts | 242° |
| 2026-05-04 12:00 | 49.79253 | 8.21416 | 10838 ft | 323 kts | 269° |
| 2026-05-04 12:01 | 49.79607 | 8.17883 | 11100 ft | 341 kts | 280° |
| 2026-05-04 12:01 | 49.80202 | 8.14268 | 11422 ft | 352 kts | 282° |
| 2026-05-04 12:02 | 49.83887 | 7.91613 | 14423 ft | 370 kts | 281° |
| 2026-05-04 12:03 | 49.84497 | 7.87731 | 14847 ft | 373 kts | 281° |
| 2026-05-04 12:03 | 49.85111 | 7.83814 | 15289 ft | 375 kts | 281° |
| 2026-05-04 12:03 | 49.85726 | 7.79868 | 15752 ft | 377 kts | 281° |
| 2026-05-04 12:03 | 49.86347 | 7.75904 | 16171 ft | 380 kts | 281° |
| 2026-05-04 12:04 | 49.86975 | 7.71915 | 16603 ft | 382 kts | 281° |
| 2026-05-04 12:04 | 49.87603 | 7.67898 | 16986 ft | 386 kts | 281° |
| 2026-05-04 12:04 | 49.88234 | 7.63838 | 17396 ft | 388 kts | 281° |
| 2026-05-04 12:04 | 49.88865 | 7.59762 | 17816 ft | 390 kts | 281° |
| 2026-05-04 12:05 | 49.89497 | 7.55662 | 18215 ft | 392 kts | 280° |
| 2026-05-04 12:05 | 49.90129 | 7.51544 | 18566 ft | 394 kts | 280° |
| 2026-05-04 12:05 | 49.90765 | 7.47387 | 18925 ft | 396 kts | 280° |
| 2026-05-04 12:05 | 49.91176 | 7.43175 | 19267 ft | 394 kts | 270° |
| 2026-05-04 12:06 | 49.91079 | 7.38941 | 19642 ft | 392 kts | 262° |
| 2026-05-04 12:06 | 49.90730 | 7.34741 | 20003 ft | 392 kts | 258° |
| 2026-05-04 12:06 | 49.90242 | 7.30576 | 20342 ft | 393 kts | 256° |
| 2026-05-04 12:06 | 49.89679 | 7.26427 | 20702 ft | 394 kts | 255° |
| 2026-05-04 12:07 | 49.89086 | 7.22269 | 21040 ft | 395 kts | 254° |
| 2026-05-04 12:07 | 49.88489 | 7.18109 | 21368 ft | 397 kts | 254° |
| 2026-05-04 12:07 | 49.87895 | 7.13920 | 21702 ft | 398 kts | 255° |
| 2026-05-04 12:07 | 49.87308 | 7.09712 | 22037 ft | 399 kts | 255° |
| 2026-05-04 12:08 | 49.86728 | 7.05497 | 22390 ft | 401 kts | 255° |
| 2026-05-04 12:08 | 49.86148 | 7.01250 | 22785 ft | 403 kts | 255° |
| 2026-05-04 12:08 | 49.85569 | 6.97003 | 23203 ft | 404 kts | 255° |
| 2026-05-04 12:08 | 49.84987 | 6.92731 | 23595 ft | 406 kts | 255° |
| 2026-05-04 12:09 | 49.84398 | 6.88428 | 23918 ft | 408 kts | 255° |
| 2026-05-04 12:09 | 49.83807 | 6.84124 | 24227 ft | 410 kts | 255° |
| 2026-05-04 12:09 | 49.83214 | 6.79827 | 24539 ft | 411 kts | 255° |
| 2026-05-04 12:09 | 49.82612 | 6.75481 | 24756 ft | 414 kts | 255° |
| 2026-05-04 12:10 | 49.82014 | 6.71176 | 25009 ft | 416 kts | 255° |
| 2026-05-04 12:10 | 49.81402 | 6.66788 | 25280 ft | 417 kts | 255° |
| 2026-05-04 12:10 | 49.80801 | 6.62483 | 25535 ft | 418 kts | 254° |
| 2026-05-04 12:10 | 49.80199 | 6.58181 | 25826 ft | 420 kts | 254° |
| 2026-05-04 12:11 | 49.79577 | 6.53754 | 26109 ft | 421 kts | 254° |
| 2026-05-04 12:11 | 49.78964 | 6.49402 | 26373 ft | 422 kts | 254° |
| 2026-05-04 12:11 | 49.78336 | 6.44955 | 26631 ft | 423 kts | 254° |
| 2026-05-04 12:11 | 49.77704 | 6.40496 | 26880 ft | 424 kts | 254° |
| 2026-05-04 12:12 | 49.77068 | 6.36028 | 27125 ft | 426 kts | 254° |
| 2026-05-04 12:12 | 49.76431 | 6.31561 | 27395 ft | 427 kts | 254° |
| 2026-05-04 12:12 | 49.75789 | 6.27065 | 27649 ft | 428 kts | 254° |
| 2026-05-04 12:12 | 49.75144 | 6.22573 | 27895 ft | 429 kts | 254° |
| 2026-05-04 12:13 | 49.74495 | 6.18064 | 28150 ft | 430 kts | 253° |
| 2026-05-04 12:14 | 49.69855 | 5.86188 | 29806 ft | 440 kts | 253° |
| 2026-05-04 12:15 | 49.69178 | 5.81589 | 30081 ft | 440 kts | 253° |
| 2026-05-04 12:15 | 49.68496 | 5.76977 | 30295 ft | 441 kts | 253° |
| 2026-05-04 12:15 | 49.67810 | 5.72349 | 30491 ft | 442 kts | 253° |
| 2026-05-04 12:15 | 49.67123 | 5.67723 | 30672 ft | 443 kts | 253° |
| 2026-05-04 12:16 | 49.66431 | 5.63083 | 30876 ft | 444 kts | 253° |
| 2026-05-04 12:16 | 49.65735 | 5.58427 | 31061 ft | 445 kts | 253° |
| 2026-05-04 12:16 | 49.65037 | 5.53770 | 31315 ft | 444 kts | 253° |
| 2026-05-04 12:16 | 49.64343 | 5.49147 | 31628 ft | 442 kts | 253° |
| 2026-05-04 12:17 | 49.63647 | 5.44534 | 31959 ft | 440 kts | 253° |
| 2026-05-04 12:17 | 49.62954 | 5.39950 | 32285 ft | 438 kts | 252° |
| 2026-05-04 12:17 | 49.62125 | 5.35452 | 32665 ft | 434 kts | 249° |
| 2026-05-04 12:17 | 49.61225 | 5.31024 | 32975 ft | 433 kts | 248° |
| 2026-05-04 12:18 | 49.60298 | 5.26612 | 33323 ft | 432 kts | 248° |
| 2026-05-04 12:18 | 49.59362 | 5.22221 | 33704 ft | 430 kts | 248° |
| 2026-05-04 12:18 | 49.58489 | 5.17823 | 34071 ft | 429 kts | 249° |
| 2026-05-04 12:18 | 49.57759 | 5.13354 | 34318 ft | 431 kts | 255° |
| 2026-05-04 12:19 | 49.57374 | 5.08758 | 34506 ft | 437 kts | 262° |
| 2026-05-04 12:19 | 49.57356 | 5.04055 | 34696 ft | 440 kts | 266° |
| 2026-05-04 12:19 | 49.57469 | 4.99339 | 34904 ft | 441 kts | 268° |
| 2026-05-04 12:19 | 49.57650 | 4.94613 | 35119 ft | 442 kts | 269° |
| 2026-05-04 12:20 | 49.57860 | 4.89878 | 35299 ft | 444 kts | 269° |
| 2026-05-04 12:20 | 49.58077 | 4.85119 | 35446 ft | 445 kts | 269° |
| 2026-05-04 12:20 | 49.58290 | 4.80367 | 35655 ft | 445 kts | 269° |
| 2026-05-04 12:20 | 49.58496 | 4.75611 | 35885 ft | 444 kts | 269° |
| 2026-05-04 12:21 | 49.58693 | 4.70863 | 36087 ft | 444 kts | 269° |
| 2026-05-04 12:21 | 49.58877 | 4.66254 | 36274 ft | 445 kts | 269° |
| 2026-05-04 12:21 | 49.59057 | 4.61628 | 36455 ft | 445 kts | 269° |
| 2026-05-04 12:21 | 49.59239 | 4.56878 | 36672 ft | 444 kts | 269° |
| 2026-05-04 12:22 | 49.59418 | 4.52126 | 36852 ft | 444 kts | 269° |
| 2026-05-04 12:22 | 49.59596 | 4.47370 | 37070 ft | 445 kts | 269° |
| 2026-05-04 12:22 | 49.59946 | 4.37865 | 37329 ft | 447 kts | 269° |
| 2026-05-04 12:23 | 49.60119 | 4.33084 | 37536 ft | 447 kts | 270° |
| 2026-05-04 12:23 | 49.60292 | 4.28300 | 37752 ft | 446 kts | 270° |
| 2026-05-04 12:23 | 49.60462 | 4.23528 | 37959 ft | 446 kts | 270° |
| 2026-05-04 12:23 | 49.60628 | 4.18757 | 38183 ft | 446 kts | 270° |
| 2026-05-04 12:24 | 49.60794 | 4.13980 | 38425 ft | 446 kts | 270° |
| 2026-05-04 12:24 | 49.60958 | 4.09198 | 38689 ft | 446 kts | 270° |
| 2026-05-04 12:24 | 49.61120 | 4.04414 | 38856 ft | 447 kts | 270° |
| 2026-05-04 12:24 | 49.61280 | 3.99634 | 38960 ft | 448 kts | 270° |
| 2026-05-04 12:25 | 49.61594 | 3.90040 | 38988 ft | 448 kts | 270° |
| 2026-05-04 12:25 | 49.61901 | 3.80445 | 38982 ft | 447 kts | 270° |
| 2026-05-04 12:26 | 49.62200 | 3.70866 | 38981 ft | 447 kts | 270° |
| 2026-05-04 12:26 | 49.62490 | 3.61288 | 38991 ft | 447 kts | 270° |
| 2026-05-04 12:27 | 49.62772 | 3.51699 | 38984 ft | 448 kts | 270° |
| 2026-05-04 12:27 | 49.63048 | 3.42101 | 38979 ft | 448 kts | 270° |
| 2026-05-04 12:28 | 49.63316 | 3.32495 | 38980 ft | 448 kts | 270° |
| 2026-05-04 12:28 | 49.63575 | 3.22899 | 38980 ft | 448 kts | 269° |
| 2026-05-04 12:29 | 49.63826 | 3.13297 | 38989 ft | 448 kts | 269° |
| 2026-05-04 12:29 | 49.64069 | 3.03691 | 38978 ft | 449 kts | 269° |
| 2026-05-04 12:30 | 49.64304 | 2.94128 | 38977 ft | 449 kts | 269° |
| 2026-05-04 12:30 | 49.64532 | 2.84493 | 38973 ft | 449 kts | 269° |
| 2026-05-04 12:31 | 49.64752 | 2.74874 | 38974 ft | 449 kts | 269° |
| 2026-05-04 12:31 | 49.64964 | 2.65240 | 38977 ft | 449 kts | 269° |
| 2026-05-04 12:32 | 49.65268 | 2.50733 | 38981 ft | 451 kts | 269° |
| 2026-05-04 12:33 | 49.65462 | 2.41054 | 38975 ft | 451 kts | 269° |
| 2026-05-04 12:33 | 49.65646 | 2.31381 | 38987 ft | 451 kts | 269° |
| 2026-05-04 12:34 | 49.65823 | 2.21701 | 38993 ft | 452 kts | 269° |
| 2026-05-04 12:34 | 49.65992 | 2.11984 | 38989 ft | 454 kts | 269° |
| 2026-05-04 12:35 | 49.66154 | 2.02233 | 38989 ft | 455 kts | 269° |
| 2026-05-04 12:35 | 49.66308 | 1.92478 | 38977 ft | 454 kts | 269° |
| 2026-05-04 12:36 | 49.66454 | 1.82720 | 38974 ft | 454 kts | 269° |
| 2026-05-04 12:36 | 49.66590 | 1.73036 | 38983 ft | 455 kts | 269° |
| 2026-05-04 12:37 | 49.66719 | 1.63250 | 38981 ft | 456 kts | 269° |
| 2026-05-04 12:37 | 49.66840 | 1.53460 | 38979 ft | 456 kts | 269° |
| 2026-05-04 12:38 | 49.66954 | 1.43671 | 38989 ft | 456 kts | 269° |
| 2026-05-04 12:38 | 49.67059 | 1.33865 | 38995 ft | 456 kts | 269° |
| 2026-05-04 12:39 | 49.67139 | 1.25713 | 38984 ft | 457 kts | 269° |
| 2026-05-04 12:39 | 49.67230 | 1.15837 | 38987 ft | 457 kts | 269° |
| 2026-05-04 12:40 | 49.67311 | 1.06081 | 38986 ft | 457 kts | 269° |
| 2026-05-04 12:40 | 49.67384 | 0.96265 | 38986 ft | 457 kts | 269° |
| 2026-05-04 12:41 | 49.67449 | 0.86441 | 38988 ft | 457 kts | 269° |
| 2026-05-04 12:41 | 49.67506 | 0.76620 | 38985 ft | 458 kts | 268° |
| 2026-05-04 12:42 | 49.67554 | 0.66790 | 38985 ft | 458 kts | 268° |
| 2026-05-04 12:42 | 49.67594 | 0.56967 | 38985 ft | 458 kts | 268° |
| 2026-05-04 12:43 | 49.67626 | 0.47135 | 38997 ft | 457 kts | 268° |
| 2026-05-04 12:43 | 49.67650 | 0.37310 | 38995 ft | 457 kts | 268° |
| 2026-05-04 12:44 | 49.67665 | 0.27510 | 38995 ft | 457 kts | 268° |
| 2026-05-04 12:44 | 49.67672 | 0.17691 | 38996 ft | 457 kts | 268° |
| 2026-05-04 12:45 | 49.67670 | 0.07888 | 38996 ft | 457 kts | 268° |
| 2026-05-04 12:45 | 49.67661 | -0.01858 | 39021 ft | 457 kts | 268° |
| 2026-05-04 12:46 | 49.67642 | -0.11688 | 39005 ft | 459 kts | 268° |
| 2026-05-04 12:46 | 49.67616 | -0.21540 | 39013 ft | 459 kts | 268° |
| 2026-05-04 12:47 | 49.67582 | -0.31394 | 39009 ft | 459 kts | 268° |
| 2026-05-04 12:47 | 49.67539 | -0.41254 | 39014 ft | 459 kts | 267° |
| 2026-05-04 12:48 | 49.67487 | -0.51103 | 39011 ft | 459 kts | 267° |
| 2026-05-04 12:48 | 49.67427 | -0.60955 | 39014 ft | 459 kts | 267° |
| 2026-05-04 12:49 | 49.67359 | -0.70809 | 39018 ft | 459 kts | 267° |
| 2026-05-04 12:49 | 49.67282 | -0.80667 | 39011 ft | 459 kts | 267° |
| 2026-05-04 12:50 | 49.67197 | -0.90524 | 39022 ft | 459 kts | 267° |
| 2026-05-04 12:50 | 49.67104 | -1.00386 | 39016 ft | 460 kts | 267° |
| 2026-05-04 12:51 | 49.67002 | -1.10271 | 39016 ft | 460 kts | 267° |
| 2026-05-04 12:51 | 49.66892 | -1.20144 | 39018 ft | 460 kts | 267° |
| 2026-05-04 12:52 | 49.66773 | -1.30018 | 39019 ft | 460 kts | 267° |
| 2026-05-04 12:52 | 49.66646 | -1.39907 | 39022 ft | 461 kts | 267° |
| 2026-05-04 12:53 | 49.66510 | -1.49803 | 39018 ft | 462 kts | 266° |
| 2026-05-04 12:53 | 49.66365 | -1.59727 | 39021 ft | 462 kts | 266° |
| 2026-05-04 12:54 | 49.66212 | -1.69643 | 39019 ft | 462 kts | 266° |
| 2026-05-04 12:54 | 49.66051 | -1.79556 | 39013 ft | 462 kts | 266° |
| 2026-05-04 12:55 | 49.65880 | -1.89500 | 39014 ft | 464 kts | 266° |
| 2026-05-04 12:55 | 49.65702 | -1.99407 | 39019 ft | 465 kts | 266° |
| 2026-05-04 12:56 | 49.65514 | -2.09388 | 39021 ft | 465 kts | 266° |
| 2026-05-04 12:56 | 49.65316 | -2.19433 | 39020 ft | 465 kts | 266° |
| 2026-05-04 12:57 | 49.65112 | -2.29341 | 39023 ft | 466 kts | 266° |
| 2026-05-04 12:57 | 49.64897 | -2.39363 | 39020 ft | 468 kts | 266° |
| 2026-05-04 12:58 | 49.64673 | -2.49397 | 39018 ft | 468 kts | 266° |
| 2026-05-04 12:58 | 49.64441 | -2.59430 | 39019 ft | 468 kts | 266° |
| 2026-05-04 12:59 | 49.64200 | -2.69466 | 39019 ft | 468 kts | 266° |
| 2026-05-04 12:59 | 49.63950 | -2.79494 | 39020 ft | 468 kts | 266° |
| 2026-05-04 13:00 | 49.63691 | -2.89545 | 39018 ft | 469 kts | 266° |
| 2026-05-04 13:00 | 49.63423 | -2.99589 | 39020 ft | 469 kts | 266° |
| 2026-05-04 13:01 | 49.63147 | -3.09634 | 39019 ft | 469 kts | 266° |
| 2026-05-04 13:01 | 49.62862 | -3.19676 | 39023 ft | 469 kts | 266° |
| 2026-05-04 13:02 | 49.62568 | -3.29714 | 39021 ft | 469 kts | 266° |
| 2026-05-04 13:02 | 49.62265 | -3.39772 | 39017 ft | 469 kts | 265° |
| 2026-05-04 13:03 | 49.61954 | -3.49829 | 39017 ft | 469 kts | 265° |
| 2026-05-04 13:03 | 49.61636 | -3.59815 | 39028 ft | 469 kts | 265° |
| 2026-05-04 13:04 | 49.61306 | -3.69872 | 39018 ft | 470 kts | 265° |
| 2026-05-04 13:04 | 49.60967 | -3.79966 | 39018 ft | 471 kts | 265° |
| 2026-05-04 13:05 | 49.60620 | -3.90035 | 39016 ft | 471 kts | 265° |
| 2026-05-04 13:05 | 49.60264 | -4.00118 | 39018 ft | 471 kts | 265° |
| 2026-05-04 13:06 | 49.59899 | -4.10192 | 39019 ft | 471 kts | 265° |
| 2026-05-04 13:06 | 49.59525 | -4.20280 | 39018 ft | 472 kts | 265° |
| 2026-05-04 13:07 | 49.59349 | -4.30382 | 39017 ft | 473 kts | 274° |
| 2026-05-04 13:07 | 49.60730 | -4.40282 | 39058 ft | 475 kts | 286° |
| 2026-05-04 13:07 | 49.61754 | -4.45124 | 39168 ft | 475 kts | 288° |
| 2026-05-04 13:08 | 49.62843 | -4.49934 | 39296 ft | 475 kts | 288° |
| 2026-05-04 13:08 | 49.63962 | -4.54743 | 39413 ft | 476 kts | 289° |
| 2026-05-04 13:08 | 49.65083 | -4.59536 | 39515 ft | 476 kts | 289° |
| 2026-05-04 13:08 | 49.66203 | -4.64348 | 39626 ft | 476 kts | 289° |
| 2026-05-04 13:09 | 49.67300 | -4.69105 | 39738 ft | 476 kts | 289° |
| 2026-05-04 13:09 | 49.68402 | -4.73925 | 39866 ft | 476 kts | 289° |
| 2026-05-04 13:09 | 49.69496 | -4.78743 | 39981 ft | 476 kts | 289° |
| 2026-05-04 13:10 | 49.71680 | -4.88427 | 40018 ft | 479 kts | 288° |
| 2026-05-04 13:10 | 49.73862 | -4.98160 | 40017 ft | 479 kts | 288° |
| 2026-05-04 13:11 | 49.76035 | -5.07890 | 40017 ft | 479 kts | 288° |
| 2026-05-04 13:11 | 49.78201 | -5.17627 | 40018 ft | 479 kts | 288° |
| 2026-05-04 13:12 | 49.80359 | -5.27376 | 40016 ft | 479 kts | 288° |
| 2026-05-04 13:12 | 49.82509 | -5.37137 | 40015 ft | 479 kts | 288° |
| 2026-05-04 13:13 | 49.84649 | -5.46896 | 40016 ft | 479 kts | 288° |
| 2026-05-04 13:13 | 49.86786 | -5.56689 | 40015 ft | 480 kts | 288° |
| 2026-05-04 13:14 | 49.88919 | -5.66510 | 40015 ft | 480 kts | 288° |
| 2026-05-04 13:14 | 49.91042 | -5.76328 | 40016 ft | 480 kts | 288° |
| 2026-05-04 13:15 | 49.93145 | -5.86103 | 40003 ft | 480 kts | 288° |
| 2026-05-04 13:15 | 49.95252 | -5.95943 | 40008 ft | 480 kts | 288° |
| 2026-05-04 13:16 | 49.97353 | -6.05804 | 40008 ft | 481 kts | 288° |
| 2026-05-04 13:16 | 49.99444 | -6.15665 | 40015 ft | 481 kts | 288° |
| 2026-05-04 13:17 | 50.01528 | -6.25542 | 40015 ft | 481 kts | 288° |
| 2026-05-04 13:17 | 50.03603 | -6.35427 | 40014 ft | 481 kts | 288° |
| 2026-05-04 13:18 | 50.05669 | -6.45315 | 40016 ft | 481 kts | 288° |
| 2026-05-04 13:18 | 50.07729 | -6.55219 | 40015 ft | 481 kts | 288° |
| 2026-05-04 13:19 | 50.09780 | -6.65132 | 40015 ft | 481 kts | 288° |
| 2026-05-04 13:19 | 50.11808 | -6.74985 | 40015 ft | 481 kts | 288° |
| 2026-05-04 13:20 | 50.13840 | -6.84905 | 40015 ft | 481 kts | 288° |
| 2026-05-04 13:20 | 50.15867 | -6.94849 | 40015 ft | 481 kts | 288° |
| 2026-05-04 13:21 | 50.17882 | -7.04784 | 40017 ft | 480 kts | 288° |
| 2026-05-04 13:21 | 50.19890 | -7.14736 | 40018 ft | 481 kts | 288° |
| 2026-05-04 13:22 | 50.21893 | -7.24717 | 40023 ft | 483 kts | 288° |
| 2026-05-04 13:22 | 50.23896 | -7.34745 | 40022 ft | 484 kts | 288° |
| 2026-05-04 13:23 | 50.25872 | -7.44693 | 40019 ft | 482 kts | 288° |
| 2026-05-04 13:23 | 50.27856 | -7.54727 | 40022 ft | 484 kts | 288° |
| 2026-05-04 13:24 | 50.29840 | -7.64815 | 40029 ft | 485 kts | 288° |
| 2026-05-04 13:24 | 50.31811 | -7.74888 | 40029 ft | 484 kts | 287° |
| 2026-05-04 13:25 | 50.34742 | -7.89974 | 40037 ft | 483 kts | 288° |
| 2026-05-04 13:25 | 50.36603 | -8.00118 | 40039 ft | 486 kts | 283° |
| 2026-05-04 13:26 | 50.37749 | -8.08730 | 40040 ft | 485 kts | 282° |
| 2026-05-04 13:26 | 50.39013 | -8.19086 | 40044 ft | 484 kts | 281° |
| 2026-05-04 13:27 | 50.40243 | -8.29472 | 40050 ft | 486 kts | 281° |
| 2026-05-04 13:27 | 50.41468 | -8.39873 | 40050 ft | 484 kts | 281° |
| 2026-05-04 13:28 | 50.42687 | -8.50239 | 40050 ft | 484 kts | 282° |
| 2026-05-04 13:28 | 50.43904 | -8.60649 | 40053 ft | 485 kts | 282° |
| 2026-05-04 13:29 | 50.45111 | -8.71049 | 40052 ft | 484 kts | 281° |
| 2026-05-04 13:29 | 50.46306 | -8.81443 | 40063 ft | 485 kts | 282° |
| 2026-05-04 13:30 | 50.47495 | -8.91862 | 40070 ft | 484 kts | 281° |
| 2026-05-04 13:30 | 50.48666 | -9.02228 | 40072 ft | 482 kts | 281° |
| 2026-05-04 13:31 | 50.49821 | -9.12523 | 40074 ft | 482 kts | 281° |
| 2026-05-04 13:31 | 50.50976 | -9.22899 | 40066 ft | 482 kts | 281° |
| 2026-05-04 13:32 | 50.52118 | -9.33265 | 40074 ft | 481 kts | 281° |
| 2026-05-04 13:32 | 50.53249 | -9.43610 | 40079 ft | 480 kts | 281° |
| 2026-05-04 13:33 | 50.54368 | -9.53935 | 40075 ft | 479 kts | 281° |
| 2026-05-04 13:33 | 50.55481 | -9.64290 | 40076 ft | 479 kts | 281° |
| 2026-05-04 13:34 | 50.56582 | -9.74628 | 40081 ft | 479 kts | 281° |
| 2026-05-04 13:34 | 50.57675 | -9.84979 | 40085 ft | 480 kts | 281° |
| 2026-05-04 13:35 | 50.59296 | -10.00502 | 40087 ft | 480 kts | 281° |
| 2026-05-04 13:36 | 50.60360 | -10.10803 | 40086 ft | 480 kts | 281° |
| 2026-05-04 13:36 | 50.61421 | -10.21174 | 40085 ft | 480 kts | 281° |
| 2026-05-04 13:37 | 50.62472 | -10.31543 | 40088 ft | 480 kts | 281° |
| 2026-05-04 13:37 | 50.63514 | -10.41922 | 40096 ft | 480 kts | 281° |
| 2026-05-04 13:38 | 50.64548 | -10.52310 | 40097 ft | 480 kts | 281° |
| 2026-05-04 13:38 | 50.65574 | -10.62707 | 40099 ft | 480 kts | 281° |
| 2026-05-04 13:39 | 50.66589 | -10.73102 | 40106 ft | 480 kts | 281° |
| 2026-05-04 13:39 | 50.67594 | -10.83507 | 40105 ft | 480 kts | 281° |
| 2026-05-04 13:40 | 50.68592 | -10.93916 | 40114 ft | 480 kts | 281° |
| 2026-05-04 13:40 | 50.69575 | -11.04281 | 40113 ft | 481 kts | 281° |
| 2026-05-04 13:41 | 50.70556 | -11.14716 | 40114 ft | 481 kts | 280° |
| 2026-05-04 13:41 | 50.71526 | -11.25147 | 40115 ft | 481 kts | 281° |
| 2026-05-04 13:42 | 50.72966 | -11.40821 | 40125 ft | 481 kts | 281° |
| 2026-05-04 13:42 | 50.73913 | -11.51270 | 40129 ft | 481 kts | 281° |
| 2026-05-04 13:43 | 50.74853 | -11.61739 | 40130 ft | 481 kts | 281° |
| 2026-05-04 13:43 | 50.75781 | -11.72194 | 40150 ft | 480 kts | 281° |
| 2026-05-04 13:44 | 50.76699 | -11.82647 | 40136 ft | 480 kts | 281° |
| 2026-05-04 13:44 | 50.77608 | -11.93094 | 40152 ft | 480 kts | 280° |
| 2026-05-04 13:45 | 50.78506 | -12.03529 | 40151 ft | 480 kts | 280° |
| 2026-05-04 13:45 | 50.79396 | -12.13986 | 40153 ft | 480 kts | 281° |
| 2026-05-04 13:46 | 50.80271 | -12.24376 | 40155 ft | 480 kts | 280° |
| 2026-05-04 13:46 | 50.81141 | -12.34836 | 40163 ft | 479 kts | 280° |
| 2026-05-04 13:47 | 50.82001 | -12.45278 | 40164 ft | 479 kts | 280° |
| 2026-05-04 13:47 | 50.82852 | -12.55725 | 40172 ft | 479 kts | 280° |
| 2026-05-04 13:48 | 50.83693 | -12.66176 | 40165 ft | 479 kts | 280° |
| 2026-05-04 13:48 | 50.84526 | -12.76644 | 40173 ft | 479 kts | 280° |
| 2026-05-04 13:49 | 50.85347 | -12.87088 | 40170 ft | 477 kts | 280° |
| 2026-05-04 13:49 | 50.86156 | -12.97501 | 40178 ft | 476 kts | 280° |
| 2026-05-04 13:50 | 50.86954 | -13.07894 | 40185 ft | 475 kts | 280° |
| 2026-05-04 13:50 | 50.87741 | -13.18265 | 40186 ft | 474 kts | 279° |
| 2026-05-04 13:51 | 50.88520 | -13.28645 | 40184 ft | 474 kts | 279° |
| 2026-05-04 13:51 | 50.89283 | -13.38940 | 40192 ft | 474 kts | 279° |
| 2026-05-04 13:52 | 50.90416 | -13.54470 | 40198 ft | 473 kts | 279° |
| 2026-05-04 13:53 | 50.91160 | -13.64840 | 40194 ft | 473 kts | 279° |
| 2026-05-04 13:53 | 50.91895 | -13.75201 | 40202 ft | 473 kts | 279° |
| 2026-05-04 13:54 | 50.92980 | -13.90753 | 40207 ft | 473 kts | 279° |
| 2026-05-04 13:55 | 50.94043 | -14.06289 | 40209 ft | 473 kts | 279° |
| 2026-05-04 13:55 | 50.95086 | -14.21840 | 40212 ft | 472 kts | 278° |
| 2026-05-04 13:56 | 50.95769 | -14.32191 | 40212 ft | 471 kts | 278° |
| 2026-05-04 13:57 | 50.96772 | -14.47688 | 40211 ft | 471 kts | 278° |
| 2026-05-04 13:58 | 50.98079 | -14.68357 | 40220 ft | 471 kts | 278° |
| 2026-05-04 13:58 | 50.99035 | -14.83861 | 40213 ft | 471 kts | 278° |
| 2026-05-04 13:59 | 50.99662 | -14.94214 | 40224 ft | 471 kts | 278° |
| 2026-05-04 13:59 | 51.01042 | -15.04290 | 40221 ft | 466 kts | 290° |
| 2026-05-04 14:00 | 51.02049 | -15.09179 | 40237 ft | 466 kts | 291° |
| 2026-05-04 14:00 | 51.05306 | -15.23737 | 40231 ft | 466 kts | 292° |
| 2026-05-04 14:01 | 51.07481 | -15.33356 | 40223 ft | 465 kts | 291° |
| 2026-05-04 14:02 | 51.10716 | -15.47891 | 40231 ft | 465 kts | 291° |
| 2026-05-04 14:02 | 51.12854 | -15.57598 | 40229 ft | 464 kts | 291° |
| 2026-05-04 14:03 | 51.14983 | -15.67306 | 40230 ft | 464 kts | 291° |
| 2026-05-04 14:03 | 51.17106 | -15.77032 | 40238 ft | 464 kts | 291° |
| 2026-05-04 14:04 | 51.20273 | -15.91625 | 40231 ft | 464 kts | 291° |
| 2026-05-04 14:04 | 51.22370 | -16.01341 | 40239 ft | 462 kts | 290° |
| 2026-05-04 14:05 | 51.25491 | -16.15894 | 40238 ft | 462 kts | 290° |
| 2026-05-04 14:06 | 51.27562 | -16.25607 | 40242 ft | 462 kts | 290° |
| 2026-05-04 14:06 | 51.29622 | -16.35312 | 40241 ft | 462 kts | 290° |
| 2026-05-04 14:07 | 51.31677 | -16.45042 | 40238 ft | 462 kts | 290° |
| 2026-05-04 14:07 | 51.33719 | -16.54758 | 40248 ft | 461 kts | 290° |
| 2026-05-04 14:08 | 51.35738 | -16.64413 | 40248 ft | 459 kts | 290° |
| 2026-05-04 14:08 | 51.37760 | -16.74133 | 40253 ft | 457 kts | 290° |
| 2026-05-04 14:09 | 51.40750 | -16.88577 | 40252 ft | 456 kts | 289° |
| 2026-05-04 14:10 | 51.43729 | -17.03079 | 40252 ft | 457 kts | 290° |
| 2026-05-04 14:10 | 51.45691 | -17.12696 | 40261 ft | 455 kts | 290° |
| 2026-05-04 14:11 | 51.47648 | -17.22331 | 40259 ft | 454 kts | 290° |
| 2026-05-04 14:11 | 51.50559 | -17.36744 | 40266 ft | 452 kts | 289° |
| 2026-05-04 14:12 | 51.52488 | -17.46355 | 40260 ft | 452 kts | 289° |
| 2026-05-04 14:13 | 51.55377 | -17.60843 | 40267 ft | 454 kts | 289° |
| 2026-05-04 14:13 | 51.56969 | -17.68871 | 40272 ft | 453 kts | 289° |
| 2026-05-04 14:14 | 51.59181 | -17.80084 | 40271 ft | 452 kts | 289° |
| 2026-05-04 14:14 | 51.61712 | -17.92991 | 40276 ft | 452 kts | 289° |
| 2026-05-04 14:15 | 51.65476 | -18.12347 | 40279 ft | 452 kts | 288° |
| 2026-05-04 14:16 | 51.68254 | -18.26768 | 40280 ft | 450 kts | 288° |
| 2026-05-04 14:17 | 51.71025 | -18.41249 | 40286 ft | 452 kts | 288° |
| 2026-05-04 14:18 | 51.73787 | -18.55805 | 40294 ft | 452 kts | 288° |
| 2026-05-04 14:19 | 51.77431 | -18.75181 | 40289 ft | 449 kts | 288° |
| 2026-05-04 14:19 | 51.79238 | -18.84863 | 40295 ft | 450 kts | 288° |
| 2026-05-04 14:20 | 51.81040 | -18.94564 | 40296 ft | 452 kts | 288° |
| 2026-05-04 14:20 | 51.82836 | -19.04292 | 40298 ft | 451 kts | 287° |
| 2026-05-04 14:21 | 51.85509 | -19.18862 | 40301 ft | 450 kts | 287° |
| 2026-05-04 14:21 | 51.87280 | -19.28581 | 40307 ft | 451 kts | 287° |
| 2026-05-04 14:22 | 51.89045 | -19.38313 | 40298 ft | 451 kts | 287° |
| 2026-05-04 14:22 | 51.90807 | -19.48085 | 40308 ft | 451 kts | 287° |
| 2026-05-04 14:23 | 51.93424 | -19.62696 | 40308 ft | 449 kts | 287° |
| 2026-05-04 14:24 | 51.95157 | -19.72436 | 40318 ft | 450 kts | 287° |
| 2026-05-04 14:24 | 51.96886 | -19.82202 | 40317 ft | 451 kts | 287° |
| 2026-05-04 14:25 | 51.98608 | -19.91988 | 40315 ft | 451 kts | 287° |
| 2026-05-04 14:25 | 52.00281 | -20.06907 | 40318 ft | 451 kts | 276° |
| 2026-05-04 14:26 | 52.00736 | -20.17073 | 40321 ft | 452 kts | 274° |
| 2026-05-04 14:26 | 52.01106 | -20.27256 | 40320 ft | 451 kts | 275° |
| 2026-05-04 14:27 | 52.01470 | -20.37422 | 40318 ft | 451 kts | 274° |
| 2026-05-04 14:27 | 52.01840 | -20.47603 | 40322 ft | 452 kts | 275° |
| 2026-05-04 14:28 | 52.02207 | -20.57775 | 40322 ft | 451 kts | 274° |
| 2026-05-04 14:28 | 52.02566 | -20.67955 | 40329 ft | 452 kts | 275° |
| 2026-05-04 14:29 | 52.03256 | -20.88294 | 40333 ft | 451 kts | 274° |
| 2026-05-04 14:30 | 52.03598 | -20.98487 | 40333 ft | 451 kts | 274° |
| 2026-05-04 14:31 | 52.04112 | -21.13734 | 40339 ft | 451 kts | 274° |
| 2026-05-04 14:32 | 52.04767 | -21.34100 | 40345 ft | 451 kts | 274° |
| 2026-05-04 14:32 | 52.05080 | -21.44275 | 40344 ft | 451 kts | 274° |
| 2026-05-04 14:33 | 52.05384 | -21.54447 | 40346 ft | 450 kts | 274° |
| 2026-05-04 14:33 | 52.05678 | -21.64551 | 40348 ft | 451 kts | 274° |
| 2026-05-04 14:34 | 52.05967 | -21.74793 | 40346 ft | 451 kts | 274° |
| 2026-05-04 14:34 | 52.06243 | -21.84901 | 40347 ft | 451 kts | 274° |
| 2026-05-04 14:35 | 52.06512 | -21.95077 | 40352 ft | 451 kts | 274° |
| 2026-05-04 14:35 | 52.06773 | -22.05272 | 40349 ft | 451 kts | 273° |
| 2026-05-04 14:36 | 52.07024 | -22.15455 | 40355 ft | 451 kts | 273° |
| 2026-05-04 14:36 | 52.07267 | -22.25643 | 40358 ft | 451 kts | 273° |
| 2026-05-04 14:37 | 52.07502 | -22.35841 | 40357 ft | 452 kts | 273° |
| 2026-05-04 14:37 | 52.07728 | -22.46050 | 40357 ft | 452 kts | 273° |
| 2026-05-04 14:38 | 52.07944 | -22.56251 | 40360 ft | 452 kts | 273° |
| 2026-05-04 14:38 | 52.08153 | -22.66459 | 40353 ft | 451 kts | 273° |
| 2026-05-04 14:39 | 52.08352 | -22.76658 | 40366 ft | 452 kts | 273° |
| 2026-05-04 14:39 | 52.08542 | -22.86869 | 40365 ft | 452 kts | 272° |
| 2026-05-04 14:40 | 52.08812 | -23.02185 | 40368 ft | 452 kts | 272° |
| 2026-05-04 14:40 | 52.08979 | -23.12327 | 40368 ft | 452 kts | 272° |
| 2026-05-04 14:41 | 52.09139 | -23.22539 | 40369 ft | 452 kts | 272° |
| 2026-05-04 14:42 | 52.09431 | -23.42959 | 40373 ft | 452 kts | 272° |
| 2026-05-04 14:42 | 52.09565 | -23.53178 | 40373 ft | 452 kts | 272° |
| 2026-05-04 14:43 | 52.09689 | -23.63387 | 40381 ft | 452 kts | 272° |
| 2026-05-04 14:43 | 52.09805 | -23.73601 | 40369 ft | 451 kts | 272° |
| 2026-05-04 14:44 | 52.09911 | -23.83811 | 40379 ft | 451 kts | 272° |
| 2026-05-04 14:44 | 52.10009 | -23.94017 | 40384 ft | 451 kts | 272° |
| 2026-05-04 14:45 | 52.10098 | -24.04219 | 40384 ft | 451 kts | 272° |
| 2026-05-04 14:45 | 52.10179 | -24.14434 | 40387 ft | 451 kts | 271° |
| 2026-05-04 14:46 | 52.10250 | -24.24573 | 40387 ft | 451 kts | 271° |
| 2026-05-04 14:46 | 52.10312 | -24.34773 | 40388 ft | 451 kts | 271° |
| 2026-05-04 14:47 | 52.10366 | -24.44984 | 40390 ft | 451 kts | 271° |
| 2026-05-04 14:47 | 52.10411 | -24.55186 | 40394 ft | 451 kts | 271° |
| 2026-05-04 14:48 | 52.10448 | -24.65405 | 40394 ft | 451 kts | 271° |
| 2026-05-04 14:48 | 52.10475 | -24.75608 | 40398 ft | 451 kts | 271° |
| 2026-05-04 14:49 | 52.10493 | -24.85804 | 40404 ft | 451 kts | 271° |
| 2026-05-04 14:49 | 52.10503 | -24.95990 | 40396 ft | 450 kts | 271° |
| 2026-05-04 14:50 | 52.10504 | -25.06178 | 40401 ft | 450 kts | 271° |
| 2026-05-04 14:50 | 52.10496 | -25.16364 | 40397 ft | 450 kts | 271° |
| 2026-05-04 14:51 | 52.10480 | -25.26541 | 40398 ft | 450 kts | 271° |
| 2026-05-04 14:51 | 52.10454 | -25.36734 | 40399 ft | 450 kts | 271° |
| 2026-05-04 14:52 | 52.10420 | -25.46905 | 40396 ft | 450 kts | 270° |
| 2026-05-04 14:52 | 52.10377 | -25.57072 | 40398 ft | 449 kts | 270° |
| 2026-05-04 14:53 | 52.10326 | -25.67172 | 40411 ft | 449 kts | 270° |
| 2026-05-04 14:53 | 52.10266 | -25.77331 | 40410 ft | 449 kts | 270° |
| 2026-05-04 14:54 | 52.10197 | -25.87494 | 40403 ft | 449 kts | 270° |
| 2026-05-04 14:54 | 52.10119 | -25.97655 | 40405 ft | 449 kts | 270° |
| 2026-05-04 14:55 | 52.10033 | -26.07805 | 40405 ft | 449 kts | 270° |
| 2026-05-04 14:55 | 52.09938 | -26.17963 | 40403 ft | 449 kts | 270° |
| 2026-05-04 14:56 | 52.09834 | -26.28112 | 40406 ft | 449 kts | 270° |
| 2026-05-04 14:56 | 52.09722 | -26.38253 | 40406 ft | 449 kts | 270° |
| 2026-05-04 14:57 | 52.09601 | -26.48400 | 40414 ft | 448 kts | 270° |
| 2026-05-04 14:57 | 52.09471 | -26.58531 | 40415 ft | 448 kts | 270° |
| 2026-05-04 14:58 | 52.09332 | -26.68669 | 40414 ft | 448 kts | 269° |
| 2026-05-04 14:58 | 52.09211 | -26.77080 | 40415 ft | 448 kts | 269° |
| 2026-05-04 14:59 | 52.09031 | -26.88850 | 40426 ft | 448 kts | 269° |
| 2026-05-04 15:00 | 52.08781 | -27.04052 | 40415 ft | 448 kts | 269° |
| 2026-05-04 15:00 | 52.08604 | -27.14171 | 40429 ft | 448 kts | 269° |
| 2026-05-04 15:01 | 52.08322 | -27.29350 | 40415 ft | 448 kts | 269° |
| 2026-05-04 15:01 | 52.08122 | -27.39482 | 40430 ft | 448 kts | 269° |
| 2026-05-04 15:02 | 52.07950 | -27.47894 | 40428 ft | 448 kts | 269° |
| 2026-05-04 15:02 | 52.07735 | -27.58020 | 40424 ft | 448 kts | 269° |
| 2026-05-04 15:03 | 52.07512 | -27.68137 | 40426 ft | 448 kts | 269° |
| 2026-05-04 15:03 | 52.07279 | -27.78268 | 40420 ft | 448 kts | 269° |
| 2026-05-04 15:04 | 52.07039 | -27.88384 | 40427 ft | 448 kts | 269° |
| 2026-05-04 15:04 | 52.06789 | -27.98505 | 40424 ft | 448 kts | 269° |
| 2026-05-04 15:05 | 52.06531 | -28.08627 | 40419 ft | 448 kts | 269° |
| 2026-05-04 15:05 | 52.06264 | -28.18743 | 40429 ft | 448 kts | 269° |
| 2026-05-04 15:06 | 52.05988 | -28.28869 | 40427 ft | 448 kts | 269° |
| 2026-05-04 15:07 | 52.05558 | -28.44060 | 40421 ft | 449 kts | 268° |
| 2026-05-04 15:07 | 52.05262 | -28.54125 | 40424 ft | 449 kts | 268° |
| 2026-05-04 15:08 | 52.04955 | -28.64255 | 40419 ft | 449 kts | 268° |
| 2026-05-04 15:08 | 52.04640 | -28.74375 | 40426 ft | 448 kts | 268° |
| 2026-05-04 15:09 | 52.04317 | -28.84492 | 40424 ft | 448 kts | 268° |
| 2026-05-04 15:09 | 52.03985 | -28.94610 | 40422 ft | 448 kts | 268° |
| 2026-05-04 15:10 | 52.03471 | -29.09769 | 40428 ft | 448 kts | 268° |
| 2026-05-04 15:11 | 52.02937 | -29.24933 | 40422 ft | 448 kts | 268° |
| 2026-05-04 15:11 | 52.02571 | -29.35025 | 40422 ft | 448 kts | 268° |
| 2026-05-04 15:12 | 52.02198 | -29.45056 | 40426 ft | 448 kts | 268° |
| 2026-05-04 15:12 | 52.01815 | -29.55148 | 40424 ft | 448 kts | 268° |
| 2026-05-04 15:13 | 52.01423 | -29.65234 | 40426 ft | 448 kts | 268° |
| 2026-05-04 15:13 | 52.01022 | -29.75320 | 40423 ft | 447 kts | 268° |
| 2026-05-04 15:14 | 52.00614 | -29.85384 | 40423 ft | 447 kts | 268° |
| 2026-05-04 15:14 | 52.00197 | -29.95441 | 40425 ft | 447 kts | 268° |
| 2026-05-04 15:15 | 52.00239 | -30.05485 | 40423 ft | 445 kts | 274° |
| 2026-05-04 15:15 | 52.00589 | -30.15520 | 40424 ft | 445 kts | 275° |
| 2026-05-04 15:16 | 52.01188 | -30.30577 | 40423 ft | 445 kts | 275° |
| 2026-05-04 15:17 | 52.01754 | -30.45591 | 40424 ft | 444 kts | 275° |
| 2026-05-04 15:17 | 52.02289 | -30.60600 | 40423 ft | 444 kts | 275° |
| 2026-05-04 15:18 | 52.02636 | -30.70611 | 40427 ft | 444 kts | 274° |
| 2026-05-04 15:19 | 52.03140 | -30.85627 | 40412 ft | 444 kts | 274° |
| 2026-05-04 15:19 | 52.03620 | -31.00619 | 40424 ft | 443 kts | 274° |
| 2026-05-04 15:20 | 52.03924 | -31.10629 | 40425 ft | 443 kts | 274° |
| 2026-05-04 15:20 | 52.04218 | -31.20621 | 40427 ft | 443 kts | 274° |
| 2026-05-04 15:21 | 52.04503 | -31.30548 | 40431 ft | 443 kts | 274° |
| 2026-05-04 15:22 | 52.04918 | -31.45548 | 40424 ft | 443 kts | 274° |
| 2026-05-04 15:22 | 52.05314 | -31.60560 | 40427 ft | 443 kts | 274° |
| 2026-05-04 15:23 | 52.05568 | -31.70572 | 40428 ft | 443 kts | 274° |
| 2026-05-04 15:23 | 52.05813 | -31.80573 | 40430 ft | 443 kts | 274° |
| 2026-05-04 15:24 | 52.06277 | -32.00607 | 40427 ft | 443 kts | 274° |
| 2026-05-04 15:25 | 52.06497 | -32.10621 | 40419 ft | 443 kts | 274° |
| 2026-05-04 15:26 | 52.06809 | -32.25600 | 40429 ft | 442 kts | 274° |
| 2026-05-04 15:26 | 52.07103 | -32.40589 | 40422 ft | 442 kts | 274° |
| 2026-05-04 15:27 | 52.07377 | -32.55509 | 40421 ft | 442 kts | 273° |
| 2026-05-04 15:28 | 52.07632 | -32.70489 | 40417 ft | 441 kts | 274° |
| 2026-05-04 15:29 | 52.07868 | -32.85418 | 40421 ft | 440 kts | 274° |
| 2026-05-04 15:30 | 52.08345 | -33.20270 | 40424 ft | 441 kts | 273° |
| 2026-05-04 15:31 | 52.08517 | -33.35184 | 40414 ft | 439 kts | 274° |
| 2026-05-04 15:32 | 52.08860 | -33.59908 | 40408 ft | 439 kts | 274° |
| 2026-05-04 15:34 | 52.09167 | -33.84697 | 40395 ft | 438 kts | 274° |
| 2026-05-04 15:34 | 52.09322 | -33.99531 | 40403 ft | 437 kts | 274° |
| 2026-05-04 15:35 | 52.09460 | -34.14372 | 40400 ft | 437 kts | 274° |
| 2026-05-04 15:36 | 52.09580 | -34.29211 | 40398 ft | 437 kts | 274° |
| 2026-05-04 15:36 | 52.09649 | -34.39110 | 40397 ft | 437 kts | 273° |
| 2026-05-04 15:37 | 52.09709 | -34.48997 | 40392 ft | 436 kts | 274° |
| 2026-05-04 15:37 | 52.09761 | -34.58839 | 40392 ft | 435 kts | 274° |
| 2026-05-04 15:38 | 52.09805 | -34.68673 | 40393 ft | 435 kts | 274° |
| 2026-05-04 15:38 | 52.09842 | -34.78521 | 40391 ft | 435 kts | 273° |
| 2026-05-04 15:39 | 52.09869 | -34.88373 | 40390 ft | 436 kts | 273° |
| 2026-05-04 15:40 | 52.09895 | -35.03085 | 40374 ft | 435 kts | 274° |
| 2026-05-04 15:40 | 52.09901 | -35.12916 | 40387 ft | 434 kts | 274° |
| 2026-05-04 15:41 | 52.09900 | -35.22725 | 40382 ft | 433 kts | 274° |
| 2026-05-04 15:41 | 52.09892 | -35.32532 | 40382 ft | 433 kts | 273° |
| 2026-05-04 15:42 | 52.09875 | -35.42334 | 40375 ft | 433 kts | 273° |
| 2026-05-04 15:42 | 52.09850 | -35.52134 | 40376 ft | 433 kts | 273° |
| 2026-05-04 15:43 | 52.09816 | -35.61938 | 40351 ft | 433 kts | 273° |
| 2026-05-04 15:43 | 52.09774 | -35.71709 | 40376 ft | 431 kts | 273° |
| 2026-05-04 15:44 | 52.09724 | -35.81448 | 40370 ft | 430 kts | 273° |
| 2026-05-04 15:44 | 52.09667 | -35.91189 | 40363 ft | 430 kts | 273° |
| 2026-05-04 15:45 | 52.09602 | -36.00928 | 40363 ft | 431 kts | 273° |
| 2026-05-04 15:45 | 52.09530 | -36.10594 | 40361 ft | 431 kts | 273° |
| 2026-05-04 15:46 | 52.09448 | -36.20332 | 40358 ft | 431 kts | 273° |
| 2026-05-04 15:46 | 52.09358 | -36.30049 | 40362 ft | 429 kts | 273° |
| 2026-05-04 15:47 | 52.09261 | -36.39728 | 40360 ft | 428 kts | 272° |
| 2026-05-04 15:47 | 52.09157 | -36.49391 | 40356 ft | 427 kts | 272° |
| 2026-05-04 15:48 | 52.09045 | -36.59064 | 40349 ft | 427 kts | 272° |
| 2026-05-04 15:48 | 52.08861 | -36.73553 | 40350 ft | 427 kts | 272° |
| 2026-05-04 15:49 | 52.08729 | -36.83208 | 40326 ft | 427 kts | 272° |
| 2026-05-04 15:49 | 52.08589 | -36.92834 | 40347 ft | 424 kts | 272° |
| 2026-05-04 15:50 | 52.08443 | -37.02343 | 40342 ft | 423 kts | 272° |
| 2026-05-04 15:50 | 52.08314 | -37.10357 | 40340 ft | 423 kts | 272° |
| 2026-05-04 15:51 | 52.08154 | -37.19923 | 40348 ft | 423 kts | 272° |
| 2026-05-04 15:51 | 52.07986 | -37.29489 | 40328 ft | 423 kts | 272° |
| 2026-05-04 15:52 | 52.07810 | -37.39039 | 40329 ft | 422 kts | 271° |
| 2026-05-04 15:52 | 52.07628 | -37.48508 | 40332 ft | 422 kts | 271° |
| 2026-05-04 15:53 | 52.07437 | -37.58037 | 40328 ft | 422 kts | 271° |
| 2026-05-04 15:53 | 52.07238 | -37.67565 | 40323 ft | 422 kts | 271° |
| 2026-05-04 15:54 | 52.07032 | -37.77088 | 40327 ft | 422 kts | 271° |
| 2026-05-04 15:54 | 52.06818 | -37.86609 | 40322 ft | 421 kts | 271° |
| 2026-05-04 15:55 | 52.06597 | -37.96124 | 40307 ft | 422 kts | 271° |
| 2026-05-04 15:55 | 52.06367 | -38.05647 | 40307 ft | 420 kts | 271° |
| 2026-05-04 15:56 | 52.06131 | -38.15079 | 40306 ft | 416 kts | 271° |
| 2026-05-04 15:56 | 52.05891 | -38.24453 | 40306 ft | 415 kts | 271° |
| 2026-05-04 15:57 | 52.05646 | -38.33748 | 40299 ft | 415 kts | 271° |
| 2026-05-04 15:57 | 52.05391 | -38.43117 | 40297 ft | 415 kts | 271° |
| 2026-05-04 15:58 | 52.05128 | -38.52487 | 40286 ft | 415 kts | 271° |
| 2026-05-04 15:58 | 52.04858 | -38.61848 | 40265 ft | 415 kts | 271° |
| 2026-05-04 15:59 | 52.04580 | -38.71265 | 40288 ft | 420 kts | 271° |
| 2026-05-04 15:59 | 52.04292 | -38.80763 | 40276 ft | 421 kts | 270° |
| 2026-05-04 16:00 | 52.03993 | -38.90277 | 40279 ft | 421 kts | 270° |
| 2026-05-04 16:00 | 52.03687 | -38.99785 | 40270 ft | 421 kts | 270° |
| 2026-05-04 16:01 | 52.03377 | -39.09229 | 40268 ft | 421 kts | 270° |
| 2026-05-04 16:01 | 52.03057 | -39.18738 | 40262 ft | 422 kts | 270° |
| 2026-05-04 16:02 | 52.02729 | -39.28235 | 40256 ft | 420 kts | 270° |
| 2026-05-04 16:03 | 52.02224 | -39.42424 | 40258 ft | 419 kts | 270° |
| 2026-05-04 16:03 | 52.01879 | -39.51868 | 40249 ft | 419 kts | 270° |
| 2026-05-04 16:04 | 52.01527 | -39.61306 | 40249 ft | 419 kts | 270° |
| 2026-05-04 16:04 | 52.00985 | -39.75464 | 40246 ft | 419 kts | 269° |
| 2026-05-04 16:05 | 52.00614 | -39.84904 | 40238 ft | 418 kts | 269° |
| 2026-05-04 16:06 | 52.00047 | -39.98913 | 40232 ft | 416 kts | 268° |
| 2026-05-04 16:07 | 51.98970 | -40.17668 | 40219 ft | 416 kts | 266° |
| 2026-05-04 16:08 | 51.97804 | -40.36290 | 40222 ft | 416 kts | 267° |
| 2026-05-04 16:09 | 51.96331 | -40.59631 | 40199 ft | 416 kts | 266° |
| 2026-05-04 16:10 | 51.95120 | -40.78262 | 40192 ft | 415 kts | 265° |
| 2026-05-04 16:11 | 51.93882 | -40.96849 | 40161 ft | 414 kts | 265° |
| 2026-05-04 16:12 | 51.91979 | -41.24587 | 40163 ft | 412 kts | 264° |
| 2026-05-04 16:13 | 51.90680 | -41.42997 | 40152 ft | 413 kts | 264° |
| 2026-05-04 16:14 | 51.89347 | -41.61466 | 40133 ft | 415 kts | 263° |
| 2026-05-04 16:16 | 51.87622 | -41.84754 | 40128 ft | 417 kts | 263° |
| 2026-05-04 16:17 | 51.85850 | -42.08051 | 40104 ft | 417 kts | 263° |
| 2026-05-04 16:18 | 51.84405 | -42.26621 | 40094 ft | 414 kts | 262° |
| 2026-05-04 16:19 | 51.82563 | -42.49718 | 40081 ft | 414 kts | 261° |
| 2026-05-04 16:20 | 51.80680 | -42.72754 | 40055 ft | 414 kts | 261° |
| 2026-05-04 16:22 | 51.78753 | -42.95748 | 40061 ft | 414 kts | 261° |
| 2026-05-04 16:23 | 51.76379 | -43.23380 | 40040 ft | 414 kts | 261° |
| 2026-05-04 16:25 | 51.73996 | -43.51005 | 40014 ft | 414 kts | 261° |
| 2026-05-04 16:26 | 51.71223 | -43.83226 | 39988 ft | 414 kts | 260° |
| 2026-05-04 16:28 | 51.69188 | -44.06159 | 39963 ft | 413 kts | 259° |
| 2026-05-04 16:29 | 51.66272 | -44.38151 | 39944 ft | 413 kts | 259° |
| 2026-05-04 16:31 | 51.64125 | -44.61088 | 39931 ft | 415 kts | 258° |
| 2026-05-04 16:32 | 51.61487 | -44.88614 | 39913 ft | 415 kts | 258° |
| 2026-05-04 16:33 | 51.59693 | -45.06946 | 39901 ft | 414 kts | 256° |
| 2026-05-04 16:34 | 51.58336 | -45.20622 | 39879 ft | 415 kts | 256° |
| 2026-05-04 16:35 | 51.55554 | -45.48132 | 39855 ft | 415 kts | 256° |
| 2026-05-04 16:36 | 51.54137 | -45.61888 | 39858 ft | 418 kts | 255° |
| 2026-05-04 16:37 | 51.52693 | -45.75731 | 39831 ft | 419 kts | 255° |
| 2026-05-04 16:38 | 51.50751 | -45.94122 | 39815 ft | 419 kts | 254° |
| 2026-05-04 16:39 | 51.48440 | -46.15632 | 39796 ft | 421 kts | 253° |
| 2026-05-04 16:40 | 51.46411 | -46.34195 | 39781 ft | 423 kts | 253° |
| 2026-05-04 16:41 | 51.43832 | -46.57402 | 39763 ft | 423 kts | 253° |
| 2026-05-04 16:43 | 51.41194 | -46.80669 | 39746 ft | 428 kts | 252° |
| 2026-05-04 16:43 | 51.39580 | -46.94715 | 39744 ft | 430 kts | 252° |
| 2026-05-04 16:45 | 51.36284 | -47.22935 | 39733 ft | 430 kts | 251° |
| 2026-05-04 16:46 | 51.33450 | -47.46665 | 39704 ft | 437 kts | 251° |
| 2026-05-04 16:47 | 51.31149 | -47.65678 | 39702 ft | 437 kts | 251° |
| 2026-05-04 16:48 | 51.28805 | -47.84733 | 39699 ft | 440 kts | 251° |
| 2026-05-04 16:49 | 51.26405 | -48.03970 | 39688 ft | 442 kts | 251° |
| 2026-05-04 16:50 | 51.23973 | -48.23214 | 39682 ft | 442 kts | 251° |
| 2026-05-04 16:51 | 51.22125 | -48.37647 | 39699 ft | 445 kts | 251° |
| 2026-05-04 16:52 | 51.19586 | -48.57204 | 39667 ft | 453 kts | 251° |
| 2026-05-04 16:53 | 51.17657 | -48.71946 | 39666 ft | 453 kts | 251° |
| 2026-05-04 16:54 | 51.15052 | -48.91572 | 39659 ft | 453 kts | 251° |
| 2026-05-04 16:55 | 51.11079 | -49.20978 | 39637 ft | 453 kts | 251° |
| 2026-05-04 16:56 | 51.07707 | -49.45470 | 39636 ft | 456 kts | 251° |
| 2026-05-04 16:57 | 51.05643 | -49.60277 | 39623 ft | 458 kts | 251° |
| 2026-05-04 16:58 | 51.02858 | -49.80034 | 39609 ft | 458 kts | 251° |
| 2026-05-04 17:00 | 50.97841 | -50.09137 | 39609 ft | 454 kts | 244° |
| 2026-05-04 17:01 | 50.92164 | -50.32589 | 39580 ft | 458 kts | 243° |
| 2026-05-04 17:02 | 50.87577 | -50.51407 | 39560 ft | 459 kts | 244° |
| 2026-05-04 17:03 | 50.84100 | -50.65578 | 39553 ft | 461 kts | 243° |
| 2026-05-04 17:03 | 50.80605 | -50.79740 | 39551 ft | 461 kts | 243° |
| 2026-05-04 17:04 | 50.75913 | -50.98601 | 39539 ft | 462 kts | 243° |
| 2026-05-04 17:05 | 50.71173 | -51.17491 | 39522 ft | 464 kts | 243° |
| 2026-05-04 17:06 | 50.67576 | -51.31720 | 39518 ft | 466 kts | 243° |
| 2026-05-04 17:07 | 50.64364 | -51.44357 | 39502 ft | 467 kts | 243° |
| 2026-05-04 17:07 | 50.61548 | -51.55376 | 39500 ft | 467 kts | 243° |
| 2026-05-04 17:08 | 50.57896 | -51.69590 | 39494 ft | 467 kts | 243° |
| 2026-05-04 17:09 | 50.55451 | -51.79051 | 39480 ft | 467 kts | 243° |
| 2026-05-04 17:09 | 50.53000 | -51.88501 | 39473 ft | 466 kts | 243° |
| 2026-05-04 17:10 | 50.45702 | -52.10934 | 39456 ft | 459 kts | 234° |
| 2026-05-04 17:11 | 50.42349 | -52.19480 | 39456 ft | 460 kts | 234° |
| 2026-05-04 17:12 | 50.37300 | -52.32267 | 39437 ft | 460 kts | 234° |
| 2026-05-04 17:13 | 50.28867 | -52.53481 | 39420 ft | 460 kts | 234° |
| 2026-05-04 17:14 | 50.22080 | -52.70431 | 39409 ft | 459 kts | 234° |
| 2026-05-04 17:15 | 50.16976 | -52.83103 | 39386 ft | 459 kts | 234° |
| 2026-05-04 17:16 | 50.10157 | -52.99941 | 39383 ft | 459 kts | 234° |
| 2026-05-04 17:17 | 50.03336 | -53.16678 | 39379 ft | 457 kts | 234° |
| 2026-05-04 17:18 | 49.96495 | -53.33354 | 39365 ft | 457 kts | 234° |
| 2026-05-04 17:19 | 49.89652 | -53.49933 | 39340 ft | 457 kts | 233° |
| 2026-05-04 17:20 | 49.82762 | -53.66519 | 39337 ft | 457 kts | 234° |
| 2026-05-04 17:20 | 49.77586 | -53.78910 | 39313 ft | 457 kts | 233° |
| 2026-05-04 17:21 | 49.70644 | -53.95440 | 39286 ft | 458 kts | 233° |
| 2026-05-04 17:22 | 49.67167 | -54.03681 | 39289 ft | 458 kts | 233° |
| 2026-05-04 17:23 | 49.60205 | -54.20102 | 39269 ft | 457 kts | 233° |
| 2026-05-04 17:24 | 49.54995 | -54.32326 | 39258 ft | 457 kts | 233° |
| 2026-05-04 17:25 | 49.48011 | -54.48627 | 39251 ft | 456 kts | 233° |
| 2026-05-04 17:26 | 49.41009 | -54.64867 | 39219 ft | 455 kts | 233° |
| 2026-05-04 17:27 | 49.32826 | -54.83722 | 39214 ft | 455 kts | 233° |
| 2026-05-04 17:28 | 49.25793 | -54.99823 | 39205 ft | 455 kts | 233° |
| 2026-05-04 17:29 | 49.15185 | -55.23923 | 39190 ft | 457 kts | 233° |
| 2026-05-04 17:31 | 49.06292 | -55.43963 | 39187 ft | 458 kts | 233° |
| 2026-05-04 17:32 | 48.97322 | -55.64026 | 39168 ft | 458 kts | 233° |
| 2026-05-04 17:33 | 48.90120 | -55.80024 | 39154 ft | 459 kts | 233° |
| 2026-05-04 17:34 | 48.82889 | -55.95994 | 39149 ft | 459 kts | 233° |
| 2026-05-04 17:35 | 48.73819 | -56.15892 | 39128 ft | 458 kts | 233° |
| 2026-05-04 17:36 | 48.70184 | -56.23823 | 39127 ft | 458 kts | 233° |
| 2026-05-04 17:36 | 48.66545 | -56.31742 | 39123 ft | 458 kts | 233° |
| 2026-05-04 17:37 | 48.62903 | -56.39644 | 39126 ft | 458 kts | 233° |
| 2026-05-04 17:37 | 48.59259 | -56.47528 | 39116 ft | 457 kts | 233° |
| 2026-05-04 17:38 | 48.55614 | -56.55390 | 39140 ft | 457 kts | 233° |
| 2026-05-04 17:38 | 48.51961 | -56.63247 | 39119 ft | 458 kts | 233° |
| 2026-05-04 17:39 | 48.46454 | -56.75047 | 39110 ft | 459 kts | 233° |
| 2026-05-04 17:39 | 48.42775 | -56.82902 | 39135 ft | 459 kts | 233° |
| 2026-05-04 17:40 | 48.39093 | -56.90741 | 39163 ft | 459 kts | 233° |
| 2026-05-04 17:40 | 48.35401 | -56.98579 | 39163 ft | 459 kts | 233° |
| 2026-05-04 17:41 | 48.31737 | -57.06335 | 39196 ft | 458 kts | 233° |
| 2026-05-04 17:41 | 48.28040 | -57.14139 | 39194 ft | 457 kts | 233° |
| 2026-05-04 17:42 | 48.24351 | -57.21903 | 39219 ft | 457 kts | 233° |
| 2026-05-04 17:42 | 48.20649 | -57.29671 | 39239 ft | 457 kts | 233° |
| 2026-05-04 17:43 | 48.16947 | -57.37418 | 39244 ft | 457 kts | 232° |
| 2026-05-04 17:43 | 48.13250 | -57.45133 | 39254 ft | 454 kts | 232° |
| 2026-05-04 17:44 | 48.09565 | -57.52801 | 39254 ft | 454 kts | 232° |
| 2026-05-04 17:44 | 48.05877 | -57.60453 | 39269 ft | 453 kts | 232° |
| 2026-05-04 17:45 | 48.02188 | -57.68085 | 39284 ft | 453 kts | 232° |
| 2026-05-04 17:45 | 47.98493 | -57.75710 | 39283 ft | 452 kts | 232° |
| 2026-05-04 17:46 | 47.94809 | -57.83291 | 39294 ft | 451 kts | 232° |
| 2026-05-04 17:46 | 47.91115 | -57.90869 | 39299 ft | 452 kts | 232° |
| 2026-05-04 17:47 | 47.87409 | -57.98452 | 39312 ft | 454 kts | 232° |
| 2026-05-04 17:47 | 47.83689 | -58.06044 | 39325 ft | 453 kts | 232° |
| 2026-05-04 17:48 | 47.79975 | -58.13601 | 39324 ft | 452 kts | 232° |
| 2026-05-04 17:48 | 47.76253 | -58.21155 | 39337 ft | 452 kts | 232° |
| 2026-05-04 17:49 | 47.72531 | -58.28688 | 39351 ft | 452 kts | 232° |
| 2026-05-04 17:49 | 47.68808 | -58.36201 | 39354 ft | 451 kts | 232° |
| 2026-05-04 17:50 | 47.65087 | -58.43690 | 39367 ft | 451 kts | 232° |
| 2026-05-04 17:50 | 47.61389 | -58.51112 | 39368 ft | 451 kts | 232° |
| 2026-05-04 17:51 | 47.57637 | -58.58622 | 39382 ft | 451 kts | 232° |
| 2026-05-04 17:51 | 47.53924 | -58.66033 | 39394 ft | 450 kts | 232° |
| 2026-05-04 17:52 | 47.50197 | -58.73453 | 39394 ft | 449 kts | 233° |
| 2026-05-04 17:52 | 47.46478 | -58.80837 | 39407 ft | 448 kts | 232° |
| 2026-05-04 17:53 | 47.42749 | -58.88221 | 39409 ft | 448 kts | 232° |
| 2026-05-04 17:53 | 47.39022 | -58.95581 | 39420 ft | 446 kts | 233° |
| 2026-05-04 17:54 | 47.35310 | -59.02891 | 39436 ft | 445 kts | 233° |
| 2026-05-04 17:54 | 47.31597 | -59.10186 | 39436 ft | 446 kts | 232° |
| 2026-05-04 17:55 | 47.27867 | -59.17493 | 39448 ft | 446 kts | 232° |
| 2026-05-04 17:55 | 47.24143 | -59.24769 | 39447 ft | 444 kts | 233° |
| 2026-05-04 17:56 | 47.20424 | -59.32018 | 39460 ft | 444 kts | 232° |
| 2026-05-04 17:56 | 47.16701 | -59.39254 | 39476 ft | 443 kts | 232° |
| 2026-05-04 17:57 | 47.12983 | -59.46461 | 39473 ft | 442 kts | 232° |
| 2026-05-04 17:57 | 47.09261 | -59.53658 | 39481 ft | 444 kts | 232° |
| 2026-05-04 17:58 | 47.05540 | -59.60834 | 39483 ft | 445 kts | 232° |
| 2026-05-04 17:58 | 47.01781 | -59.68064 | 39483 ft | 445 kts | 232° |
| 2026-05-04 17:59 | 46.98021 | -59.75278 | 39493 ft | 446 kts | 232° |
| 2026-05-04 18:00 | 46.92365 | -59.86092 | 39498 ft | 446 kts | 232° |
| 2026-05-04 18:00 | 46.88587 | -59.93293 | 39500 ft | 446 kts | 232° |
| 2026-05-04 18:01 | 46.84813 | -60.00468 | 39505 ft | 445 kts | 232° |
| 2026-05-04 18:01 | 46.81031 | -60.07639 | 39502 ft | 445 kts | 232° |
| 2026-05-04 18:02 | 46.75332 | -60.18409 | 39493 ft | 449 kts | 232° |
| 2026-05-04 18:02 | 46.71512 | -60.25606 | 39493 ft | 449 kts | 232° |
| 2026-05-04 18:03 | 46.67684 | -60.32800 | 39485 ft | 449 kts | 232° |
| 2026-05-04 18:03 | 46.63855 | -60.39975 | 39454 ft | 448 kts | 232° |
| 2026-05-04 18:04 | 46.60034 | -60.47119 | 39456 ft | 446 kts | 232° |
| 2026-05-04 18:05 | 46.54318 | -60.57768 | 39491 ft | 445 kts | 232° |
| 2026-05-04 18:05 | 46.50531 | -60.64802 | 39521 ft | 445 kts | 233° |
| 2026-05-04 18:06 | 46.44835 | -60.75347 | 39243 ft | 436 kts | 232° |
| 2026-05-04 18:06 | 46.42968 | -60.78794 | 39018 ft | 434 kts | 233° |
| 2026-05-04 18:06 | 46.41110 | -60.82223 | 38810 ft | 433 kts | 233° |
| 2026-05-04 18:07 | 46.39244 | -60.85659 | 38614 ft | 434 kts | 233° |
| 2026-05-04 18:07 | 46.37376 | -60.89097 | 38407 ft | 433 kts | 233° |
| 2026-05-04 18:07 | 46.35525 | -60.92499 | 38165 ft | 427 kts | 233° |
| 2026-05-04 18:07 | 46.33693 | -60.95860 | 37774 ft | 423 kts | 233° |
| 2026-05-04 18:08 | 46.31878 | -60.99188 | 37381 ft | 420 kts | 233° |
| 2026-05-04 18:08 | 46.30075 | -61.02490 | 36977 ft | 417 kts | 233° |
| 2026-05-04 18:08 | 46.28284 | -61.05766 | 36585 ft | 413 kts | 233° |
| 2026-05-04 18:08 | 46.26508 | -61.09010 | 36201 ft | 410 kts | 233° |
| 2026-05-04 18:09 | 46.22991 | -61.15423 | 35393 ft | 405 kts | 233° |
| 2026-05-04 18:09 | 46.19506 | -61.21765 | 34550 ft | 401 kts | 233° |
| 2026-05-04 18:10 | 46.17774 | -61.24913 | 34043 ft | 401 kts | 233° |
| 2026-05-04 18:10 | 46.16036 | -61.28066 | 33504 ft | 401 kts | 233° |
| 2026-05-04 18:10 | 46.14296 | -61.31220 | 32823 ft | 402 kts | 233° |
| 2026-05-04 18:10 | 46.12557 | -61.34369 | 32202 ft | 402 kts | 234° |
| 2026-05-04 18:11 | 46.10812 | -61.37524 | 31573 ft | 402 kts | 234° |
| 2026-05-04 18:11 | 46.09086 | -61.40640 | 30932 ft | 403 kts | 234° |
| 2026-05-04 18:11 | 46.07338 | -61.43795 | 30361 ft | 402 kts | 234° |
| 2026-05-04 18:11 | 46.05602 | -61.46921 | 29921 ft | 397 kts | 234° |
| 2026-05-04 18:12 | 46.03886 | -61.50008 | 29452 ft | 392 kts | 234° |
| 2026-05-04 18:12 | 46.02196 | -61.53046 | 29015 ft | 387 kts | 234° |
| 2026-05-04 18:12 | 46.00524 | -61.56049 | 28569 ft | 383 kts | 234° |
| 2026-05-04 18:12 | 45.98860 | -61.59036 | 28119 ft | 382 kts | 234° |
| 2026-05-04 18:13 | 45.97200 | -61.62011 | 27673 ft | 379 kts | 234° |
| 2026-05-04 18:13 | 45.95555 | -61.64957 | 27239 ft | 376 kts | 234° |
| 2026-05-04 18:13 | 45.92847 | -61.69798 | 26517 ft | 371 kts | 234° |
| 2026-05-04 18:14 | 45.91231 | -61.72684 | 26071 ft | 368 kts | 235° |
| 2026-05-04 18:14 | 45.89634 | -61.75531 | 25639 ft | 364 kts | 235° |
| 2026-05-04 18:14 | 45.88052 | -61.78348 | 25228 ft | 359 kts | 236° |
| 2026-05-04 18:15 | 45.84941 | -61.83883 | 24371 ft | 355 kts | 236° |
| 2026-05-04 18:15 | 45.81860 | -61.89356 | 23528 ft | 350 kts | 236° |
| 2026-05-04 18:15 | 45.80337 | -61.92056 | 23081 ft | 347 kts | 237° |
| 2026-05-04 18:16 | 45.78821 | -61.94741 | 22626 ft | 345 kts | 237° |
| 2026-05-04 18:16 | 45.77321 | -61.97396 | 22218 ft | 342 kts | 237° |
| 2026-05-04 18:16 | 45.75826 | -62.00040 | 21793 ft | 340 kts | 237° |
| 2026-05-04 18:17 | 45.72862 | -62.05274 | 20986 ft | 336 kts | 237° |
| 2026-05-04 18:17 | 45.71394 | -62.07862 | 20592 ft | 334 kts | 237° |
| 2026-05-04 18:17 | 45.68486 | -62.12980 | 19803 ft | 329 kts | 238° |
| 2026-05-04 18:18 | 45.67047 | -62.15513 | 19408 ft | 328 kts | 238° |
| 2026-05-04 18:18 | 45.65610 | -62.18037 | 19026 ft | 326 kts | 238° |
| 2026-05-04 18:18 | 45.64182 | -62.20545 | 18629 ft | 325 kts | 238° |
| 2026-05-04 18:18 | 45.62760 | -62.23036 | 18238 ft | 323 kts | 238° |
| 2026-05-04 18:19 | 45.59835 | -62.27892 | 17692 ft | 322 kts | 236° |
| 2026-05-04 18:19 | 45.58384 | -62.30257 | 17316 ft | 320 kts | 236° |
| 2026-05-04 18:19 | 45.56920 | -62.32638 | 16927 ft | 317 kts | 236° |
| 2026-05-04 18:20 | 45.55449 | -62.35028 | 16535 ft | 315 kts | 236° |
| 2026-05-04 18:20 | 45.54006 | -62.37370 | 16170 ft | 313 kts | 236° |
| 2026-05-04 18:20 | 45.52561 | -62.39722 | 15930 ft | 315 kts | 236° |
| 2026-05-04 18:20 | 45.51125 | -62.42046 | 15636 ft | 309 kts | 236° |
| 2026-05-04 18:21 | 45.49712 | -62.44336 | 15240 ft | 308 kts | 236° |
| 2026-05-04 18:21 | 45.48300 | -62.46626 | 14862 ft | 307 kts | 236° |
| 2026-05-04 18:21 | 45.46889 | -62.48910 | 14492 ft | 306 kts | 236° |
| 2026-05-04 18:21 | 45.45487 | -62.51178 | 14102 ft | 304 kts | 236° |
| 2026-05-04 18:22 | 45.44092 | -62.53430 | 13734 ft | 302 kts | 236° |
| 2026-05-04 18:22 | 45.42725 | -62.55638 | 13355 ft | 300 kts | 236° |
| 2026-05-04 18:22 | 45.41346 | -62.57864 | 12947 ft | 299 kts | 236° |
| 2026-05-04 18:22 | 45.39976 | -62.60072 | 12573 ft | 297 kts | 236° |
| 2026-05-04 18:23 | 45.38612 | -62.62270 | 12198 ft | 296 kts | 236° |
| 2026-05-04 18:23 | 45.37255 | -62.64453 | 11826 ft | 294 kts | 236° |
| 2026-05-04 18:23 | 45.35903 | -62.66627 | 11448 ft | 292 kts | 236° |
| 2026-05-04 18:23 | 45.34560 | -62.68783 | 11087 ft | 291 kts | 236° |
| 2026-05-04 18:24 | 45.33232 | -62.70911 | 10850 ft | 281 kts | 236° |
| 2026-05-04 18:24 | 45.31965 | -62.72931 | 10778 ft | 266 kts | 236° |
| 2026-05-04 18:24 | 45.30763 | -62.74849 | 10681 ft | 254 kts | 236° |
| 2026-05-04 18:24 | 45.29614 | -62.76690 | 10550 ft | 245 kts | 237° |
| 2026-05-04 18:25 | 45.28505 | -62.78467 | 10463 ft | 236 kts | 237° |
| 2026-05-04 18:25 | 45.27413 | -62.80223 | 10289 ft | 237 kts | 237° |
| 2026-05-04 18:25 | 45.26319 | -62.81982 | 10015 ft | 237 kts | 237° |
| 2026-05-04 18:25 | 45.25225 | -62.83730 | 9771 ft | 237 kts | 237° |
| 2026-05-04 18:26 | 45.24133 | -62.85477 | 9516 ft | 236 kts | 237° |
| 2026-05-04 18:26 | 45.23046 | -62.87214 | 9264 ft | 235 kts | 237° |
| 2026-05-04 18:26 | 45.21958 | -62.88951 | 9020 ft | 234 kts | 237° |
| 2026-05-04 18:26 | 45.20882 | -62.90667 | 8764 ft | 232 kts | 236° |
| 2026-05-04 18:27 | 45.19849 | -62.92415 | 8529 ft | 228 kts | 242° |
| 2026-05-04 18:27 | 45.19019 | -62.94309 | 8299 ft | 225 kts | 247° |
| 2026-05-04 18:27 | 45.18264 | -62.96250 | 8043 ft | 224 kts | 248° |
| 2026-05-04 18:27 | 45.17521 | -62.98188 | 7814 ft | 223 kts | 248° |
| 2026-05-04 18:28 | 45.16791 | -63.00093 | 7573 ft | 222 kts | 248° |
| 2026-05-04 18:28 | 45.16053 | -63.02014 | 7331 ft | 222 kts | 247° |
| 2026-05-04 18:28 | 45.15313 | -63.03935 | 7091 ft | 221 kts | 247° |
| 2026-05-04 18:28 | 45.14578 | -63.05838 | 6842 ft | 220 kts | 248° |
| 2026-05-04 18:29 | 45.13847 | -63.07730 | 6600 ft | 218 kts | 248° |
| 2026-05-04 18:29 | 45.13119 | -63.09609 | 6367 ft | 217 kts | 248° |
| 2026-05-04 18:29 | 45.12396 | -63.11478 | 6125 ft | 216 kts | 248° |
| 2026-05-04 18:29 | 45.11676 | -63.13336 | 5867 ft | 215 kts | 247° |
| 2026-05-04 18:30 | 45.10240 | -63.17035 | 5402 ft | 213 kts | 247° |
| 2026-05-04 18:30 | 45.09530 | -63.18860 | 5208 ft | 208 kts | 247° |
| 2026-05-04 18:30 | 45.08850 | -63.20599 | 5064 ft | 195 kts | 247° |
| 2026-05-04 18:31 | 45.08216 | -63.22217 | 4906 ft | 181 kts | 247° |
| 2026-05-04 18:31 | 45.07620 | -63.23744 | 4644 ft | 174 kts | 247° |
| 2026-05-04 18:31 | 45.07041 | -63.25236 | 4424 ft | 173 kts | 247° |
| 2026-05-04 18:31 | 45.06466 | -63.26720 | 4316 ft | 171 kts | 247° |
| 2026-05-04 18:32 | 45.05891 | -63.28200 | 4245 ft | 172 kts | 247° |
| 2026-05-04 18:32 | 45.05316 | -63.29676 | 4163 ft | 170 kts | 247° |
| 2026-05-04 18:32 | 45.04757 | -63.31103 | 4088 ft | 162 kts | 247° |
| 2026-05-04 18:32 | 45.04223 | -63.32466 | 4024 ft | 157 kts | 247° |
| 2026-05-04 18:33 | 45.03701 | -63.33804 | 3938 ft | 155 kts | 247° |
| 2026-05-04 18:33 | 45.03180 | -63.35142 | 3830 ft | 156 kts | 247° |
| 2026-05-04 18:33 | 45.02607 | -63.36441 | 3658 ft | 158 kts | 238° |
| 2026-05-04 18:33 | 45.01817 | -63.37551 | 3510 ft | 162 kts | 227° |
| 2026-05-04 18:34 | 45.00913 | -63.38520 | 3361 ft | 167 kts | 223° |
| 2026-05-04 18:34 | 44.99949 | -63.39458 | 3172 ft | 168 kts | 223° |
| 2026-05-04 18:34 | 44.99008 | -63.40390 | 2950 ft | 163 kts | 224° |
| 2026-05-04 18:34 | 44.98089 | -63.41307 | 2715 ft | 160 kts | 224° |
| 2026-05-04 18:35 | 44.97209 | -63.42178 | 2492 ft | 148 kts | 224° |
| 2026-05-04 18:35 | 44.96386 | -63.42994 | 2284 ft | 138 kts | 224° |
| 2026-05-04 18:35 | 44.95620 | -63.43756 | 2119 ft | 133 kts | 224° |
| 2026-05-04 18:35 | 44.94865 | -63.44507 | 1936 ft | 133 kts | 224° |
| 2026-05-04 18:36 | 44.94105 | -63.45263 | 1741 ft | 134 kts | 224° |
| 2026-05-04 18:36 | 44.93343 | -63.46018 | 1567 ft | 134 kts | 225° |
| 2026-05-04 18:36 | 44.92582 | -63.46777 | 1380 ft | 134 kts | 225° |
| 2026-05-04 18:36 | 44.91820 | -63.47528 | 1203 ft | 133 kts | 226° |
| 2026-05-04 18:37 | 44.91063 | -63.48286 | 1020 ft | 134 kts | 225° |
| 2026-05-04 18:37 | 44.90300 | -63.49038 | 832 ft | 132 kts | 225° |
| 2026-05-04 18:37 | 44.89541 | -63.49765 | 678 ft | 131 kts | 221° |
| 2026-05-04 18:37 | 44.88802 | -63.50499 | 515 ft | 127 kts | 225° |
| 2026-05-04 18:38 | 44.88122 | -63.51181 | 454 ft | 109 kts | 220° |
| 2026-05-04 18:38 | 44.87658 | -63.51652 | 455 ft | 54 kts | 215° |
| 2026-05-04 18:38 | 44.87377 | -63.51927 | 452 ft | 45 kts | 214° |
| 2026-05-04 18:38 | 44.87152 | -63.52151 | 453 ft | 27 kts | 216° |
| 2026-05-04 18:39 | 44.87018 | -63.52285 | 454 ft | 22 kts | 214° |
| 2026-05-04 18:39 | 44.86914 | -63.52413 | 453 ft | 16 kts | 247° |
| 2026-05-04 18:39 | 44.86940 | -63.52517 | 455 ft | 9 kts | 324° |
| 2026-05-04 18:39 | 44.86999 | -63.52539 | 456 ft | 10 kts | 351° |
| 2026-05-04 18:40 | 44.87070 | -63.52542 | 456 ft | 10 kts | 20° |
| 2026-05-04 18:40 | 44.87140 | -63.52489 | 456 ft | 11 kts | 34° |
| 2026-05-04 18:40 | 44.87211 | -63.52419 | 456 ft | 14 kts | 36° |
| 2026-05-04 18:40 | 44.87302 | -63.52327 | 456 ft | 18 kts | 35° |
| 2026-05-04 18:41 | 44.87411 | -63.52217 | 455 ft | 19 kts | 36° |
| 2026-05-04 18:41 | 44.87527 | -63.52106 | 456 ft | 22 kts | 35° |
| 2026-05-04 18:41 | 44.87657 | -63.51978 | 455 ft | 24 kts | 34° |
| 2026-05-04 18:41 | 44.87798 | -63.51838 | 456 ft | 26 kts | 35° |
| 2026-05-04 18:42 | 44.87945 | -63.51694 | 456 ft | 21 kts | 34° |
| 2026-05-04 18:42 | 44.88073 | -63.51567 | 456 ft | 23 kts | 35° |
| 2026-05-04 18:42 | 44.88212 | -63.51430 | 455 ft | 22 kts | 35° |
| 2026-05-04 18:42 | 44.88335 | -63.51307 | 455 ft | 22 kts | 37° |
| 2026-05-04 18:43 | 44.88434 | -63.51209 | 455 ft | 16 kts | 19° |
| 2026-05-04 18:43 | 44.88544 | -63.51225 | 455 ft | 16 kts | 351° |
| 2026-05-04 18:43 | 44.88663 | -63.51254 | 455 ft | 18 kts | 350° |
| 2026-05-04 18:43 | 44.88790 | -63.51285 | 455 ft | 15 kts | 350° |
| 2026-05-04 18:44 | 44.88875 | -63.51306 | 455 ft | 12 kts | 350° |
| 2026-05-04 18:44 | 44.88901 | -63.51318 | 455 ft | 12 kts | 332° |
| 2026-05-04 18:44 | 44.88953 | -63.51430 | 455 ft | 1 kts | 252° |
| 2026-05-04 18:44 | 44.88949 | -63.51433 | 455 ft | 0 kts | 229° |
| 2026-05-04 18:45 | 44.88936 | -63.51442 | 455 ft | 4 kts | 209° |
| 2026-05-04 18:45 | 44.88908 | -63.51467 | 455 ft | 6 kts | 214° |
| 2026-05-04 18:45 | 44.88892 | -63.51483 | 455 ft | 0 kts | 214° |
| 2026-05-04 18:45 | 44.88891 | -63.51483 | 455 ft | 0 kts | 214° |